Time;durP1;ratioP1;P1;durP2;ratioP2;P2;SDS_P1;SDS_P2;PMS_P1;PMS_P2;Temp;Humidity;BMP_temperature;BMP_pressure;BME280_temperature;BME280_humidity;BME280_pressure;Samples;Min_cycle;Max_cycle;Signal;HPM_P1;HPM_P2
2022/04/18 00:04:01;;;;;;;3.60;2.83;;;;;3.00;96732.00;;;;8287007;28;20317;-76
2022/04/18 00:08:05;;;;;;;4.50;3.10;;;;;2.80;96719.00;;;;8287502;28;20230;-75
2022/04/18 00:12:09;;;;;;;4.00;3.10;;;;;2.70;96717.00;;;;8286760;28;20240;-75
2022/04/18 00:16:12;;;;;;;8.13;3.23;;;;;2.50;96714.00;;;;8286732;28;20241;-75
2022/04/18 00:20:17;;;;;;;9.43;3.07;;;;;2.40;96708.00;;;;8286586;28;20209;-75
2022/04/18 00:24:21;;;;;;;4.23;2.93;;;;;2.30;96704.00;;;;8286982;28;20309;-75
2022/04/18 00:28:25;;;;;;;10.93;3.37;;;;;2.20;96695.00;;;;8286206;28;20342;-76
2022/04/18 00:32:28;;;;;;;3.83;2.70;;;;;2.20;96697.00;;;;8286017;28;20222;-77
2022/04/18 00:36:32;;;;;;;5.50;3.10;;;;;2.10;96686.00;;;;8286782;28;20604;-77
2022/04/18 00:40:36;;;;;;;3.63;3.20;;;;;2.00;96686.00;;;;8285155;28;20309;-76
2022/04/18 00:44:39;;;;;;;5.27;3.40;;;;;1.90;96685.00;;;;8307856;28;20226;-77
2022/04/18 00:48:42;;;;;;;6.33;3.20;;;;;1.80;96686.00;;;;8297245;28;20225;-77
2022/04/18 00:52:49;;;;;;;5.47;2.87;;;;;1.60;96681.00;;;;8286117;28;20238;-77
2022/04/18 00:56:54;;;;;;;5.27;3.13;;;;;1.40;96672.00;;;;8285570;28;20690;-78
2022/04/18 01:00:57;;;;;;;5.40;3.17;;;;;1.30;96670.00;;;;8286241;28;20272;-78
2022/04/18 01:05:00;;;;;;;6.13;3.30;;;;;1.30;96662.00;;;;8285064;28;20269;-77
2022/04/18 01:09:05;;;;;;;11.03;3.57;;;;;1.40;96666.00;;;;8286246;28;20791;-78
2022/04/18 01:13:08;;;;;;;7.87;2.87;;;;;1.40;96665.00;;;;8285552;28;20254;-77
2022/04/18 01:17:11;;;;;;;4.60;3.37;;;;;1.50;96660.00;;;;8284876;28;20268;-76
2022/04/18 01:21:18;;;;;;;4.33;3.23;;;;;1.40;96655.00;;;;8284504;28;20687;-77
2022/04/18 01:29:47;;;;;;;6.10;2.90;;;;;1.30;96651.00;;;;8258692;28;20312;-75
2022/04/18 01:33:50;;;;;;;5.93;2.80;;;;;1.20;96648.00;;;;8284714;28;20230;-76
2022/04/18 01:37:54;;;;;;;5.60;2.97;;;;;1.20;96648.00;;;;8284593;28;20228;-77
2022/04/18 01:41:58;;;;;;;3.73;3.13;;;;;1.10;96637.00;;;;8283990;28;20930;-76
2022/04/18 01:46:01;;;;;;;4.33;3.27;;;;;1.10;96633.00;;;;8315962;28;20741;-78
2022/04/18 01:50:04;;;;;;;6.83;3.23;;;;;1.00;96628.00;;;;8284402;28;20229;-78
2022/04/18 01:54:09;;;;;;;3.93;2.97;;;;;0.90;96620.00;;;;8284300;28;20341;-76
2022/04/18 01:58:12;;;;;;;5.03;2.87;;;;;0.90;96621.00;;;;8283086;28;20643;-78
2022/04/18 02:02:15;;;;;;;3.90;3.10;;;;;0.90;96609.00;;;;8284120;28;20226;-76
2022/04/18 02:06:18;;;;;;;3.10;2.73;;;;;0.80;96604.00;;;;8267165;28;20624;-76
2022/04/18 02:10:23;;;;;;;4.87;2.87;;;;;0.80;96603.00;;;;8306736;28;20734;-75
2022/04/18 02:14:26;;;;;;;5.37;3.00;;;;;0.80;96596.00;;;;8283476;28;20230;-75
2022/04/18 02:18:30;;;;;;;2.43;2.23;;;;;0.70;96598.00;;;;8283900;28;20313;-75
2022/04/18 02:22:33;;;;;;;4.00;3.10;;;;;0.70;96601.00;;;;8283365;28;20653;-75
2022/04/18 02:26:38;;;;;;;5.63;3.30;;;;;0.60;96595.00;;;;8283049;28;20240;-74
2022/04/18 02:30:41;;;;;;;4.33;3.00;;;;;0.40;96593.00;;;;8283799;28;20225;-74
2022/04/18 02:34:44;;;;;;;9.90;2.90;;;;;0.30;96583.00;;;;8283218;28;20328;-74
2022/04/18 02:38:47;;;;;;;4.67;3.10;;;;;0.10;96578.00;;;;8282744;28;20226;-75
2022/04/18 02:42:52;;;;;;;3.73;3.07;;;;;0.00;96582.00;;;;8286015;28;20250;-74
2022/04/18 02:46:55;;;;;;;3.10;2.80;;;;;-0.10;96575.00;;;;8283057;28;20229;-75
2022/04/18 02:50:58;;;;;;;5.23;3.10;;;;;-0.10;96563.00;;;;8283644;28;20255;-75
2022/04/18 02:55:02;;;;;;;7.27;3.23;;;;;-0.10;96558.00;;;;8308226;28;20702;-75
2022/04/18 02:59:06;;;;;;;5.07;3.20;;;;;-0.20;96556.00;;;;8295662;28;20240;-75
2022/04/18 03:03:09;;;;;;;6.77;3.60;;;;;-0.20;96558.00;;;;8359502;22;20540;-75
2022/04/18 03:07:13;;;;;;;4.47;3.30;;;;;-0.20;96550.00;;;;8276471;28;20590;-73
2022/04/18 03:11:16;;;;;;;6.10;3.43;;;;;-0.20;96563.00;;;;8281292;28;20225;-74
2022/04/18 03:15:21;;;;;;;5.13;3.90;;;;;-0.10;96556.00;;;;8276115;28;20638;-75
2022/04/18 03:19:24;;;;;;;4.77;3.30;;;;;-0.10;96563.00;;;;8289317;28;21051;-75
2022/04/18 03:23:27;;;;;;;9.53;3.37;;;;;0.00;96554.00;;;;8288782;28;20222;-75
2022/04/18 03:27:30;;;;;;;3.47;3.07;;;;;0.00;96551.00;;;;8289499;28;20240;-75
2022/04/18 03:31:34;;;;;;;8.87;4.30;;;;;0.00;96543.00;;;;8288518;28;20236;-76
2022/04/18 03:35:38;;;;;;;4.07;3.00;;;;;0.00;96547.00;;;;8276970;28;20296;-76
2022/04/18 03:40:00;;;;;;;5.27;3.07;;;;;0.00;96538.00;;;;8287966;28;20251;-76
2022/04/18 03:44:03;;;;;;;7.10;3.47;;;;;0.20;96532.00;;;;8271063;28;20237;-76
2022/04/18 03:48:08;;;;;;;6.03;3.50;;;;;0.40;96527.00;;;;8284271;28;20222;-76
2022/04/18 03:52:12;;;;;;;7.03;3.43;;;;;0.80;96528.00;;;;8287614;28;20236;-76
2022/04/18 03:56:15;;;;;;;4.07;3.00;;;;;0.90;96528.00;;;;8287096;28;20583;-76
2022/04/18 04:00:19;;;;;;;6.83;3.37;;;;;0.80;96520.00;;;;8271867;28;20233;-75
2022/04/18 04:04:23;;;;;;;2.70;2.47;;;;;0.80;96520.00;;;;8267476;28;20230;-76
2022/04/18 04:08:28;;;;;;;4.03;2.83;;;;;0.60;96510.00;;;;8286671;28;20694;-76
2022/04/18 04:12:31;;;;;;;5.87;4.87;;;;;0.50;96514.00;;;;8285783;28;20316;-75
2022/04/18 04:16:34;;;;;;;4.97;3.30;;;;;0.40;96515.00;;;;8287285;28;20257;-77
2022/04/18 04:20:39;;;;;;;7.43;3.37;;;;;0.30;96527.00;;;;8270167;28;20235;-75
2022/04/18 04:24:42;;;;;;;4.83;2.97;;;;;0.20;96509.00;;;;8289066;28;20225;-76
2022/04/18 04:28:45;;;;;;;5.20;2.93;;;;;0.10;96515.00;;;;8308502;28;20283;-75
2022/04/18 04:32:50;;;;;;;6.10;3.33;;;;;0.10;96514.00;;;;8296738;28;20333;-75
2022/04/18 04:36:55;;;;;;;3.57;3.13;;;;;0.10;96519.00;;;;8283337;28;20595;-73
2022/04/18 04:40:58;;;;;;;5.27;2.90;;;;;0.00;96516.00;;;;8285241;28;20308;-76
2022/04/18 04:45:01;;;;;;;4.67;2.80;;;;;0.00;96519.00;;;;8300234;28;20232;-74
2022/04/18 04:49:05;;;;;;;6.33;3.23;;;;;0.10;96526.00;;;;8286210;28;20313;-75
2022/04/18 04:53:09;;;;;;;6.83;3.10;;;;;0.20;96522.00;;;;8285179;28;20829;-76
2022/04/18 04:57:13;;;;;;;8.20;3.00;;;;;0.20;96526.00;;;;8285591;28;20730;-79
2022/04/18 05:01:16;;;;;;;6.57;2.97;;;;;0.40;96520.00;;;;8275818;28;20248;-78
2022/04/18 05:05:19;;;;;;;3.27;2.83;;;;;0.50;96524.00;;;;8285291;28;20300;-77
2022/04/18 05:09:24;;;;;;;4.97;3.07;;;;;0.60;96526.00;;;;8281094;28;20304;-77
2022/04/18 05:13:27;;;;;;;5.07;2.63;;;;;0.80;96526.00;;;;8271179;28;20648;-75
2022/04/18 05:17:30;;;;;;;7.10;3.20;;;;;0.90;96526.00;;;;8269609;28;20258;-75
2022/04/18 05:21:34;;;;;;;5.43;3.23;;;;;1.10;96520.00;;;;8267806;28;20232;-76
2022/04/18 05:25:38;;;;;;;4.00;3.40;;;;;1.20;96529.00;;;;8265838;28;20305;-75
2022/04/18 05:29:42;;;;;;;3.90;3.00;;;;;1.40;96534.00;;;;8269179;28;20229;-76
2022/04/18 05:33:45;;;;;;;5.93;3.40;;;;;1.60;96525.00;;;;8264460;28;20222;-74
2022/04/18 05:37:48;;;;;;;5.50;3.03;;;;;1.90;96534.00;;;;8275085;28;20287;-76
2022/04/18 05:41:53;;;;;;;7.77;3.23;;;;;2.20;96538.00;;;;8272446;28;20250;-76
2022/04/18 05:45:56;;;;;;;12.63;7.43;;;;;2.40;96540.00;;;;8269121;28;20982;-74
2022/04/18 05:50:00;;;;;;;8.97;4.73;;;;;2.80;96536.00;;;;8282884;28;20234;-74
2022/04/18 05:54:03;;;;;;;4.63;3.40;;;;;3.10;96541.00;;;;8281753;28;20730;-74
2022/04/18 05:58:08;;;;;;;6.23;3.77;;;;;3.80;96542.00;;;;8281538;28;21005;-74
2022/04/18 06:02:11;;;;;;;8.27;3.30;;;;;4.50;96545.00;;;;8282869;28;20264;-75
2022/04/18 06:06:14;;;;;;;5.67;3.80;;;;;5.10;96544.00;;;;8283057;28;20309;-74
2022/04/18 06:10:18;;;;;;;5.97;3.43;;;;;5.50;96554.00;;;;8282999;28;20320;-74
2022/04/18 06:14:23;;;;;;;7.20;3.30;;;;;5.80;96546.00;;;;8283535;28;20230;-73
2022/04/18 06:18:27;;;;;;;6.30;3.77;;;;;6.10;96550.00;;;;8282500;28;20323;-73
2022/04/18 06:22:31;;;;;;;6.80;4.30;;;;;6.50;96562.00;;;;8271909;28;20670;-74
2022/04/18 06:26:34;;;;;;;5.00;3.60;;;;;6.70;96566.00;;;;8283508;28;20235;-73
2022/04/18 06:30:39;;;;;;;7.53;3.13;;;;;7.00;96553.00;;;;8289609;28;20239;-73
2022/04/18 06:34:42;;;;;;;5.20;3.57;;;;;7.20;96559.00;;;;8287249;28;20241;-74
2022/04/18 06:38:45;;;;;;;7.97;3.50;;;;;7.50;96552.00;;;;8288284;28;20674;-74
2022/04/18 06:42:50;;;;;;;4.10;3.17;;;;;7.80;96551.00;;;;8295402;28;20311;-69
2022/04/18 06:46:55;;;;;;;5.33;3.57;;;;;8.10;96557.00;;;;8305595;28;20335;-69
2022/04/18 06:50:58;;;;;;;4.63;3.47;;;;;8.30;96553.00;;;;8289525;28;20232;-69
2022/04/18 06:55:01;;;;;;;4.53;3.23;;;;;8.50;96554.00;;;;8288778;28;20323;-70
2022/04/18 06:59:04;;;;;;;4.40;3.07;;;;;8.70;96553.00;;;;8282018;28;20252;-70
2022/04/18 07:03:09;;;;;;;5.13;3.43;;;;;9.00;96546.00;;;;8287078;28;20240;-72
2022/04/18 07:07:12;;;;;;;5.57;3.40;;;;;9.40;96552.00;;;;8286011;28;20569;-70
2022/04/18 07:11:15;;;;;;;4.10;3.33;;;;;9.60;96549.00;;;;8289151;28;20263;-69
2022/04/18 07:15:18;;;;;;;4.17;3.20;;;;;9.80;96550.00;;;;8288266;28;20583;-70
2022/04/18 07:19:23;;;;;;;3.97;2.63;;;;;10.10;96549.00;;;;8285911;28;20231;-69
2022/04/18 07:23:26;;;;;;;4.43;3.17;;;;;10.90;96543.00;;;;8281565;28;20240;-70
2022/04/18 07:27:29;;;;;;;5.10;3.00;;;;;11.60;96553.00;;;;8288080;28;20265;-74
2022/04/18 07:31:32;;;;;;;6.57;3.03;;;;;12.10;96552.00;;;;8287457;28;20796;-73
2022/04/18 07:35:38;;;;;;;3.87;2.80;;;;;12.60;96559.00;;;;8287978;28;20260;-72
2022/04/18 07:39:41;;;;;;;4.22;2.85;;;;;13.20;96555.00;;;;8285696;28;20245;-74
2022/04/18 07:43:44;;;;;;;3.63;2.70;;;;;13.80;96558.00;;;;8295636;28;20222;-73
2022/04/18 07:47:47;;;;;;;3.85;2.38;;;;;14.40;96563.00;;;;8286365;28;20229;-74
2022/04/18 07:51:52;;;;;;;4.43;3.00;;;;;14.80;96563.00;;;;8287345;28;20230;-74
2022/04/18 07:55:55;;;;;;;4.28;3.10;;;;;15.30;96565.00;;;;8286426;28;20231;-74
2022/04/18 07:59:59;;;;;;;3.42;2.47;;;;;15.40;96561.00;;;;8286371;28;20223;-74
2022/04/18 08:04:03;;;;;;;4.95;2.83;;;;;15.60;96553.00;;;;8276533;28;20246;-74
2022/04/18 08:08:08;;;;;;;4.45;3.08;;;;;16.20;96560.00;;;;8263532;28;20236;-74
2022/04/18 08:12:12;;;;;;;3.08;2.67;;;;;16.70;96558.00;;;;8269976;28;20746;-74
2022/04/18 08:16:16;;;;;;;2.80;2.60;;;;;17.20;96565.00;;;;8278133;28;20230;-74
2022/04/18 08:20:19;;;;;;;3.03;2.58;;;;;17.90;96563.00;;;;8273431;28;20769;-74
2022/04/18 08:24:24;;;;;;;3.75;2.50;;;;;18.10;96556.00;;;;8276009;28;20201;-74
2022/04/18 08:28:27;;;;;;;5.38;2.58;;;;;18.40;96552.00;;;;8277333;28;20206;-74
2022/04/18 08:32:34;;;;;;;5.32;2.80;;;;;18.70;96560.00;;;;8265948;28;20305;-74
2022/04/18 08:36:37;;;;;;;4.03;2.50;;;;;18.60;96563.00;;;;8278110;28;21019;-73
2022/04/18 08:40:44;;;;;;;4.18;2.40;;;;;18.50;96560.00;;;;8264837;28;20246;-75
2022/04/18 08:44:47;;;;;;;2.92;2.63;;;;;19.10;96560.00;;;;8270219;28;20232;-74
2022/04/18 08:53:13;;;;;;;2.70;2.50;;;;;19.30;96561.00;;;;8282684;28;20638;-74
2022/04/18 08:57:18;;;;;;;3.17;2.65;;;;;18.90;96545.00;;;;8276519;28;20238;-74
2022/04/18 09:01:21;;;;;;;3.13;2.70;;;;;19.30;96557.00;;;;8273976;28;20226;-74
2022/04/18 09:05:25;;;;;;;2.92;2.53;;;;;19.60;96547.00;;;;8278426;28;20268;-73
2022/04/18 09:09:29;;;;;;;3.30;2.47;;;;;20.10;96550.00;;;;8272124;28;21770;-73
2022/04/18 09:13:34;;;;;;;2.40;2.22;;;;;20.50;96548.00;;;;8270533;28;20429;-75
2022/04/18 09:17:38;;;;;;;2.10;2.00;;;;;20.40;96540.00;;;;8263967;28;20226;-74
2022/04/18 09:21:56;;;;;;;4.88;2.70;;;;;20.80;96540.00;;;;8275617;28;20226;-74
2022/04/18 09:26:01;;;;;;;2.28;2.08;;;;;21.20;96533.00;;;;8267206;28;20631;-74
2022/04/18 09:30:07;;;;;;;3.17;2.20;;;;;21.20;96542.00;;;;8265921;28;20232;-74
2022/04/18 09:34:12;;;;;;;2.60;2.40;;;;;20.30;96538.00;;;;8279794;28;20320;-74
2022/04/18 09:38:19;;;;;;;2.55;2.35;;;;;19.10;96533.00;;;;8253577;28;20238;-74
2022/04/18 09:42:23;;;;;;;2.20;2.00;;;;;18.10;96532.00;;;;8277598;28;20225;-74
2022/04/18 09:46:28;;;;;;;4.32;2.80;;;;;18.50;96529.00;;;;8276160;28;20230;-75
2022/04/18 09:54:56;;;;;;;2.95;2.20;;;;;18.90;96522.00;;;;8272771;28;20321;-75
2022/04/18 09:58:59;;;;;;;2.15;1.92;;;;;17.90;96518.00;;;;8275564;28;20697;-74
2022/04/18 10:03:10;;;;;;;3.08;2.47;;;;;17.50;96506.00;;;;8278025;28;20240;-72
2022/04/18 10:07:14;;;;;;;3.03;2.22;;;;;17.50;96508.00;;;;8277076;28;20235;-74
2022/04/18 10:11:17;;;;;;;3.40;2.40;;;;;16.90;96503.00;;;;8263521;28;20235;-74
2022/04/18 10:15:21;;;;;;;4.28;2.10;;;;;16.50;96502.00;;;;8281055;28;20232;-74
2022/04/18 10:19:39;;;;;;;5.80;2.60;;;;;16.90;96496.00;;;;8283215;28;20242;-74
2022/04/18 10:24:14;;;;;;;2.50;2.30;;;;;16.60;96483.00;;;;8282600;28;20247;-74
2022/04/18 10:28:20;;;;;;;2.25;2.05;;;;;16.20;96479.00;;;;8255417;28;20228;-73
2022/04/18 10:32:26;;;;;;;2.30;2.00;;;;;16.10;96474.00;;;;8282647;28;20436;-75
2022/04/18 10:36:32;;;;;;;3.85;2.28;;;;;16.90;96471.00;;;;8283074;28;21007;-75
2022/04/18 10:40:40;;;;;;;2.75;2.13;;;;;18.10;96461.00;;;;8283593;28;20564;-75
2022/04/18 10:44:43;;;;;;;2.58;1.77;;;;;19.60;96466.00;;;;8283558;28;20230;-75
2022/04/18 10:48:55;;;;;;;3.15;2.13;;;;;19.50;96472.00;;;;8281828;28;20226;-75
2022/04/18 10:53:20;;;;;;;2.33;2.13;;;;;18.00;96458.00;;;;8278154;28;20222;-76
2022/04/18 10:57:28;;;;;;;1.88;1.77;;;;;16.90;96453.00;;;;8283549;28;20813;-75
2022/04/18 11:01:37;;;;;;;5.35;1.80;;;;;16.30;96451.00;;;;8282443;28;20382;-75
2022/04/18 11:05:41;;;;;;;2.17;2.08;;;;;16.30;96436.00;;;;8282599;28;20571;-75
2022/04/18 11:09:48;;;;;;;2.22;1.58;;;;;16.00;96429.00;;;;8282502;28;20316;-75
2022/04/18 11:13:56;;;;;;;1.80;1.70;;;;;16.30;96440.00;;;;8285733;28;20236;-76
2022/04/18 11:18:02;;;;;;;2.53;2.05;;;;;16.70;96433.00;;;;8282889;28;20840;-73
2022/04/18 11:22:10;;;;;;;2.05;1.95;;;;;16.60;96439.00;;;;8276413;28;20225;-75
2022/04/18 11:26:21;;;;;;;2.17;1.60;;;;;16.30;96433.00;;;;8276984;28;20265;-73
2022/04/18 11:30:24;;;;;;;1.75;1.65;;;;;17.10;96427.00;;;;8277901;28;20320;-74
2022/04/18 11:34:28;;;;;;;1.90;1.70;;;;;17.90;96428.00;;;;8280100;28;20241;-75
2022/04/18 11:38:32;;;;;;;4.47;1.85;;;;;19.10;96417.00;;;;8278419;28;20359;-74
2022/04/18 11:42:38;;;;;;;2.33;1.90;;;;;20.20;96420.00;;;;8283157;28;20297;-75
2022/04/18 11:46:41;;;;;;;2.30;1.55;;;;;20.30;96421.00;;;;8277857;28;20228;-75
2022/04/18 11:50:44;;;;;;;1.60;1.50;;;;;20.70;96421.00;;;;8278427;28;20218;-74
2022/04/18 11:54:58;;;;;;;1.63;1.52;;;;;19.50;96408.00;;;;8283332;28;20232;-75
2022/04/18 11:59:05;;;;;;;3.10;1.70;;;;;18.60;96404.00;;;;8281403;28;20608;-75
2022/04/18 12:07:31;;;;;;;1.85;1.55;;;;;18.20;96404.00;;;;8276622;28;20305;-74
2022/04/18 12:11:35;;;;;;;2.47;1.98;;;;;18.30;96389.00;;;;8274809;28;20226;-73
2022/04/18 12:15:41;;;;;;;1.65;1.55;;;;;18.00;96387.00;;;;8276409;28;20226;-75
2022/04/18 12:19:45;;;;;;;1.80;1.70;;;;;18.00;96383.00;;;;8270461;28;20329;-74
2022/04/18 12:23:54;;;;;;;5.45;1.98;;;;;17.80;96378.00;;;;8286069;28;20240;-74
2022/04/18 12:27:59;;;;;;;1.98;1.80;;;;;17.80;96363.00;;;;8277375;28;20304;-75
2022/04/18 12:32:05;;;;;;;1.88;1.77;;;;;17.80;96350.00;;;;8286223;28;20226;-76
2022/04/18 12:36:22;;;;;;;2.90;1.80;;;;;17.70;96354.00;;;;8286271;28;20226;-76
2022/04/18 12:40:34;;;;;;;2.50;1.70;;;;;17.60;96351.00;;;;8286734;28;20265;-76
2022/04/18 12:44:39;;;;;;;1.92;1.83;;;;;17.40;96335.00;;;;8302014;28;20735;-76
2022/04/18 12:48:50;;;;;;;2.03;1.90;;;;;17.50;96342.00;;;;8282492;28;20249;-74
2022/04/18 12:52:53;;;;;;;1.73;1.70;;;;;17.90;96339.00;;;;8283639;28;20308;-75
2022/04/18 12:56:56;;;;;;;2.15;1.75;;;;;18.20;96333.00;;;;8281337;28;20312;-75
2022/04/18 13:01:00;;;;;;;2.13;1.90;;;;;18.00;96332.00;;;;8285425;28;20229;-77
2022/04/18 13:05:05;;;;;;;2.28;1.55;;;;;17.70;96322.00;;;;8285752;28;20230;-74
2022/04/18 13:09:10;;;;;;;3.03;1.80;;;;;17.50;96320.00;;;;8286784;28;20313;-74
2022/04/18 13:13:15;;;;;;;2.55;1.73;;;;;17.20;96316.00;;;;8267465;28;20233;-76
2022/04/18 13:17:19;;;;;;;1.80;1.70;;;;;17.10;96307.00;;;;8275229;28;20260;-76
2022/04/18 13:21:24;;;;;;;1.70;1.60;;;;;17.60;96298.00;;;;8267796;28;20337;-75
2022/04/18 13:25:27;;;;;;;2.38;2.17;;;;;18.30;96300.00;;;;8264262;28;20305;-75
2022/04/18 13:29:30;;;;;;;3.60;1.77;;;;;18.30;96296.00;;;;8274191;28;20328;-75
2022/04/18 13:33:33;;;;;;;2.10;1.90;;;;;17.90;96298.00;;;;8280911;28;20248;-69
2022/04/18 13:37:38;;;;;;;2.20;1.98;;;;;17.60;96290.00;;;;8283568;28;20262;-71
2022/04/18 13:41:43;;;;;;;1.90;1.75;;;;;17.80;96287.00;;;;8279375;28;20317;-76
2022/04/18 13:45:46;;;;;;;4.47;2.10;;;;;18.00;96281.00;;;;8284173;28;20261;-77
2022/04/18 13:49:50;;;;;;;11.02;2.03;;;;;18.70;96274.00;;;;8279604;28;20780;-76
2022/04/18 13:53:57;;;;;;;3.35;2.20;;;;;19.50;96279.00;;;;8280561;28;20233;-75
2022/04/18 13:58:00;;;;;;;2.17;2.00;;;;;19.20;96276.00;;;;8281670;28;20261;-75
2022/04/18 14:02:04;;;;;;;2.30;1.90;;;;;19.70;96272.00;;;;8269050;28;20245;-75
2022/04/18 14:06:09;;;;;;;1.90;1.80;;;;;20.50;96266.00;;;;8262409;28;20226;-77
2022/04/18 14:10:13;;;;;;;1.73;1.63;;;;;20.80;96262.00;;;;8264772;28;20898;-75
2022/04/18 14:22:56;;;;;;;2.03;1.92;;;;;21.70;96251.00;;;;8281370;28;20693;-75
2022/04/18 14:27:00;;;;;;;2.78;1.80;;;;;20.70;96253.00;;;;8272881;28;20240;-75
2022/04/18 14:31:04;;;;;;;1.85;1.75;;;;;19.70;96251.00;;;;8287986;28;20317;-75
2022/04/18 14:35:09;;;;;;;1.55;1.50;;;;;19.30;96252.00;;;;8268193;28;20280;-75
2022/04/18 14:39:12;;;;;;;2.08;1.70;;;;;19.00;96243.00;;;;8265159;28;20226;-74
2022/04/18 14:43:17;;;;;;;1.77;1.67;;;;;18.30;96241.00;;;;8272698;28;20506;-73
2022/04/18 14:47:27;;;;;;;1.75;1.65;;;;;18.20;96241.00;;;;8269081;28;20226;-74
2022/04/18 14:51:31;;;;;;;2.25;1.70;;;;;18.00;96235.00;;;;8272075;28;20238;-74
2022/04/18 14:55:34;;;;;;;1.60;1.50;;;;;18.10;96237.00;;;;8273567;28;20289;-74
2022/04/18 14:59:38;;;;;;;1.80;1.70;;;;;18.20;96238.00;;;;8276094;28;20266;-75
2022/04/18 15:03:42;;;;;;;1.80;1.70;;;;;18.20;96232.00;;;;8278522;28;20246;-75
2022/04/18 15:07:46;;;;;;;3.17;1.70;;;;;18.60;96228.00;;;;8283372;28;20250;-77
2022/04/18 15:11:49;;;;;;;2.45;1.90;;;;;19.50;96231.00;;;;8276374;28;20240;-76
2022/04/18 15:15:53;;;;;;;2.90;1.50;;;;;20.20;96229.00;;;;8287107;28;20222;-80
2022/04/18 15:19:56;;;;;;;1.50;1.40;;;;;20.20;96219.00;;;;8271427;28;20237;-81
2022/04/18 15:24:00;;;;;;;2.40;1.75;;;;;20.00;96219.00;;;;8271088;28;20234;-80
2022/04/18 15:28:04;;;;;;;3.20;1.88;;;;;19.70;96215.00;;;;8248791;28;20631;-85
2022/04/18 15:32:10;;;;;;;1.90;1.80;;;;;19.50;96212.00;;;;8270458;28;20230;-84
2022/04/18 15:36:13;;;;;;;1.90;1.80;;;;;19.10;96205.00;;;;8277715;28;20301;-79
2022/04/18 15:40:16;;;;;;;1.88;1.77;;;;;18.80;96205.00;;;;8286277;28;20433;-79
2022/04/18 15:44:20;;;;;;;2.28;1.63;;;;;18.50;96203.00;;;;8288557;28;20352;-78
2022/04/18 15:48:25;;;;;;;1.92;1.75;;;;;18.40;96201.00;;;;8290639;28;20238;-78
2022/04/18 15:52:28;;;;;;;1.90;1.80;;;;;18.50;96198.00;;;;8286132;28;20226;-79
2022/04/18 15:56:32;;;;;;;2.05;1.80;;;;;18.60;96203.00;;;;8283100;28;20229;-78
2022/04/18 16:00:41;;;;;;;2.13;1.92;;;;;18.60;96209.00;;;;8281178;28;20253;-77
2022/04/18 16:04:46;;;;;;;1.83;1.73;;;;;18.40;96197.00;;;;8278183;28;20619;-78
2022/04/18 16:08:49;;;;;;;1.70;1.60;;;;;18.20;96200.00;;;;8277625;28;20733;-77
2022/04/18 16:12:52;;;;;;;1.52;1.50;;;;;18.10;96199.00;;;;8288311;28;20221;-77
2022/04/18 16:17:00;;;;;;;2.95;2.65;;;;;17.80;96200.00;;;;8284052;28;20222;-77
2022/04/18 16:21:05;;;;;;;2.40;1.85;;;;;17.60;96192.00;;;;8270407;28;20222;-76
2022/04/18 16:25:09;;;;;;;1.70;1.60;;;;;17.40;96193.00;;;;8271383;28;20580;-77
2022/04/18 16:33:35;;;;;;;1.85;1.63;;;;;17.40;96188.00;;;;8275869;28;20248;-76
2022/04/18 16:37:41;;;;;;;1.92;1.83;;;;;17.90;96186.00;;;;8280662;28;20313;-76
2022/04/18 16:46:05;;;;;;;1.52;1.52;;;;;18.50;96177.00;;;;8278464;28;20713;-76
2022/04/18 16:50:09;;;;;;;2.35;1.88;;;;;18.70;96175.00;;;;8272505;28;20229;-76
2022/04/18 16:54:14;;;;;;;2.60;2.40;;;;;18.60;96174.00;;;;8273541;28;20806;-77
2022/04/18 16:58:17;;;;;;;2.80;1.77;;;;;18.40;96163.00;;;;8266686;28;20607;-74
2022/04/18 17:02:20;;;;;;;1.92;1.83;;;;;18.80;96163.00;;;;8272818;28;20248;-74
2022/04/18 17:06:23;;;;;;;3.78;2.00;;;;;18.70;96159.00;;;;8270103;28;20225;-72
2022/04/18 17:10:28;;;;;;;1.80;1.70;;;;;18.30;96163.00;;;;8272681;28;20226;-72
2022/04/18 17:14:31;;;;;;;1.98;1.88;;;;;17.90;96165.00;;;;8273385;28;20226;-72
2022/04/18 17:18:41;;;;;;;2.42;1.58;;;;;17.70;96163.00;;;;8268316;28;20818;-72
2022/04/18 17:22:44;;;;;;;2.55;1.73;;;;;17.40;96159.00;;;;8266365;28;20235;-71
2022/04/18 17:26:50;;;;;;;1.90;1.80;;;;;17.10;96154.00;;;;8271619;28;21122;-70
2022/04/18 17:30:53;;;;;;;3.08;1.95;;;;;16.90;96152.00;;;;8271250;28;20703;-72
2022/04/18 17:34:58;;;;;;;3.00;2.38;;;;;16.60;96148.00;;;;8261336;28;20252;-72
2022/04/18 17:39:01;;;;;;;2.33;2.13;;;;;16.30;96152.00;;;;8273359;28;20670;-73
2022/04/18 17:43:06;;;;;;;2.55;2.35;;;;;16.00;96148.00;;;;8267501;28;20242;-72
2022/04/18 17:47:09;;;;;;;3.72;2.15;;;;;15.80;96147.00;;;;8266975;28;21068;-71
2022/04/18 17:51:13;;;;;;;3.20;1.70;;;;;15.40;96137.00;;;;8264927;28;20264;-72
2022/04/18 17:59:38;;;;;;;2.30;2.10;;;;;14.70;96148.00;;;;8263729;28;20716;-73
2022/04/18 18:03:41;;;;;;;2.17;2.00;;;;;14.30;96150.00;;;;8270952;28;20222;-72
2022/04/18 18:07:45;;;;;;;2.13;1.70;;;;;14.00;96143.00;;;;8267742;28;20687;-71
2022/04/18 18:11:48;;;;;;;3.22;1.80;;;;;13.70;96137.00;;;;8260843;28;20252;-72
2022/04/18 18:15:53;;;;;;;3.72;2.25;;;;;13.40;96140.00;;;;8267686;28;20234;-71
2022/04/18 18:19:56;;;;;;;2.40;2.25;;;;;13.10;96144.00;;;;8264832;28;20240;-71
2022/04/18 18:24:00;;;;;;;2.40;2.20;;;;;12.80;96135.00;;;;8270837;28;20219;-70
2022/04/18 18:28:05;;;;;;;1.80;1.70;;;;;12.50;96132.00;;;;8268710;28;20743;-72
2022/04/18 18:32:11;;;;;;;3.50;2.20;;;;;12.20;96139.00;;;;8271943;28;20234;-75
2022/04/18 18:36:14;;;;;;;1.90;1.90;;;;;11.90;96135.00;;;;8279323;28;20234;-74
2022/04/18 18:40:19;;;;;;;3.45;1.98;;;;;11.70;96149.00;;;;8278095;28;20571;-74
2022/04/18 18:44:22;;;;;;;2.77;2.00;;;;;11.60;96156.00;;;;8275985;28;20309;-74
2022/04/18 18:48:27;;;;;;;2.80;2.60;;;;;11.50;96158.00;;;;8269609;28;20587;-73
2022/04/18 18:52:31;;;;;;;2.67;2.42;;;;;11.40;96162.00;;;;8272202;28;20260;-73
2022/04/18 18:56:34;;;;;;;2.63;2.43;;;;;11.40;96155.00;;;;8276385;28;20316;-73
2022/04/18 19:00:37;;;;;;;2.60;2.40;;;;;11.30;96155.00;;;;8276295;28;20341;-73
2022/04/18 19:04:42;;;;;;;4.23;2.60;;;;;11.10;96160.00;;;;8272795;28;20257;-71
2022/04/18 19:08:47;;;;;;;2.30;2.10;;;;;11.10;96158.00;;;;8272857;28;20709;-72
2022/04/18 19:12:51;;;;;;;4.87;2.77;;;;;11.00;96164.00;;;;8276052;28;20236;-69
2022/04/18 19:30:13;;;;;;;8.17;4.77;;;;;11.10;96157.00;;;;8276354;28;20240;-69
2022/04/18 19:34:20;;;;;;;12.53;6.50;;;;;11.10;96158.00;;;;8248408;28;20225;-70
2022/04/18 19:38:27;;;;;;;12.20;5.77;;;;;11.10;96162.00;;;;8263978;28;20262;-71
2022/04/18 19:42:31;;;;;;;10.57;6.10;;;;;11.10;96156.00;;;;8262946;28;20292;-69
2022/04/18 19:46:37;;;;;;;8.82;5.20;;;;;11.20;96165.00;;;;8257745;28;20308;-70
2022/04/18 19:50:46;;;;;;;6.13;3.63;;;;;11.20;96161.00;;;;8251240;28;20222;-69
2022/04/18 19:54:54;;;;;;;4.57;2.90;;;;;11.20;96152.00;;;;8269845;28;20691;-70
2022/04/18 19:58:58;;;;;;;4.87;3.53;;;;;11.00;96152.00;;;;8263855;28;20222;-70
2022/04/18 20:03:01;;;;;;;6.07;4.03;;;;;10.90;96155.00;;;;8275527;28;20230;-70
2022/04/18 20:07:08;;;;;;;4.10;2.90;;;;;10.60;96156.00;;;;8280751;28;20557;-70
2022/04/18 20:11:13;;;;;;;4.53;3.17;;;;;10.40;96164.00;;;;8274182;28;20242;-71
2022/04/18 20:19:33;;;;;;;5.25;3.03;;;;;10.80;96168.00;;;;8277118;28;20229;-70
2022/04/18 20:23:39;;;;;;;3.63;3.13;;;;;10.90;96164.00;;;;8270819;28;20243;-72
2022/04/18 20:27:43;;;;;;;4.05;3.35;;;;;11.00;96167.00;;;;8275996;28;20230;-75
2022/04/18 20:31:46;;;;;;;4.10;2.27;;;;;11.00;96168.00;;;;8267813;28;20218;-70
2022/04/18 20:35:50;;;;;;;4.17;2.57;;;;;10.90;96166.00;;;;8276637;28;20415;-70
2022/04/18 20:39:53;;;;;;;4.13;2.40;;;;;10.80;96156.00;;;;8273226;28;21119;-72
2022/04/18 20:43:59;;;;;;;2.90;2.70;;;;;10.70;96156.00;;;;8279131;28;20257;-70
2022/04/18 20:48:27;;;;;;;2.80;2.60;;;;;10.60;96160.00;;;;8243439;28;20233;-72
2022/04/18 21:01:13;;;;;;;7.50;3.70;;;;;10.40;96156.00;;;;8243506;28;20688;-71
2022/04/18 21:05:16;;;;;;;4.40;3.70;;;;;10.30;96163.00;;;;8248918;28;20222;-70
2022/04/18 21:09:19;;;;;;;3.57;2.80;;;;;10.30;96151.00;;;;8235214;28;20228;-71
2022/04/18 21:13:23;;;;;;;2.67;2.43;;;;;10.20;96152.00;;;;8238035;28;20232;-69
2022/04/18 21:17:32;;;;;;;3.00;2.70;;;;;10.10;96141.00;;;;8240030;28;20244;-69
2022/04/18 21:21:35;;;;;;;3.53;2.90;;;;;10.10;96140.00;;;;8249179;28;20333;-70
2022/04/18 21:25:39;;;;;;;2.90;2.60;;;;;10.00;96149.00;;;;8246344;28;20227;-70
2022/04/18 21:29:42;;;;;;;4.07;2.60;;;;;9.90;96144.00;;;;8235342;28;20322;-71
2022/04/18 21:33:47;;;;;;;3.67;2.90;;;;;9.90;96138.00;;;;8230140;28;20839;-71
2022/04/18 21:37:51;;;;;;;5.07;2.70;;;;;9.80;96147.00;;;;8229561;28;20670;-71